Adrian, Oregon
Current Conditions -  °F | °C
As of 11:10 PM on Tuesday 27 Jan 2015 (Local Time) from KONO Reporting Station
Haze Haze  
Wind Chill: 36°   Ceiling: Unl
Heat Index: 36°   Visibility: 5mi
Dew Point: 34°   Wind: 3mph
Humidity: 93%   Direction: 230°SW
Pressure: 30.22"   Gusts: NA
Location:  43.74°N, 117.07°W
Report Text: KONO 280610Z AUTO 23003KT 5SM BR SCT015 02/01 A3022 RMK AO2 T00220011
Loading
Personal Weather Stations






























Interactive Weather Map New forecast layout! Learn more

10-Day Weather Forecast

Advertisements
Track Severe Weather on mobile